• Join FlightAware (Why Join?)
  • Login
  • US Flag 
02:29AM EST


 

Airport Tracker/Info


-or-


 

Live Flight TrackerFlight Track Log ✈ CTL16 ✈ 30-Apr-2013 ✈ KHAO - KBKL

Flight Track Log - Related Links

Times and Time Zones

All times are in EDT time to prevent confusion due to time zone crossing. See the CTL16 flight status page for this flight to view local times or setup timezone preferences in your user account.

Time Position Orientation Groundspeed Altitude Reporting Facility
EDT Latitude Longitude Course Direction KTS MPH feet Rate Location/Type
08:39PM 39.3667 -84.4833 38° Northeast 125 144 1,600  Level Cincinnati TRACON
08:39PM 39.3833 -84.4667 38° Northeast 137 158 2,100 600 Climbing Cincinnati TRACON
08:40PM 39.4114 -84.4367 40° Northeast 154 177 2,400 420 Climbing Indianapolis Center
08:41PM 39.4353 -84.4019 48° Northeast 167 192 2,800 480 Climbing Indianapolis Center
08:42PM 39.4628 -84.3603 49° Northeast 167 192 3,300 660 Climbing Indianapolis Center
08:43PM 39.4992 -84.3106 47° Northeast 163 188 4,200 660 Climbing Indianapolis Center
08:44PM 39.5236 -84.2706 52° Northeast 163 188 4,700 480 Climbing Indianapolis Center
08:45PM 39.5597 -84.2169 49° Northeast 166 191 5,200 540 Climbing Indianapolis Center
08:46PM 39.5917 -84.1708 48° Northeast 168 193 5,900 480 Climbing Indianapolis Center
08:47PM 39.6233 -84.1297 45° Northeast 162 186 6,300 420 Climbing Indianapolis Center
08:48PM 39.6539 -84.0881 46° Northeast 159 183 6,800 300 Climbing Indianapolis Center
08:49PM 39.6881 -84.0400 47° Northeast 166 191 7,000 60 Climbing Indianapolis Center
08:50PM 39.7200 -83.9992 45° Northeast 172 198 7,000  Level Indianapolis Center
08:51PM 39.7536 -83.9522 47° Northeast 175 201 7,000  Level Indianapolis Center
08:52PM 39.7875 -83.9039 48° Northeast 177 204 7,000  Level Indianapolis Center
08:53PM 39.8228 -83.8564 46° Northeast 179 206 7,000  Level Indianapolis Center
08:54PM 39.8586 -83.8119 44° Northeast 178 205 7,000  Level Indianapolis Center
08:55PM 39.8953 -83.7681 43° Northeast 177 204 7,000  Level Indianapolis Center
08:56PM 39.9322 -83.7236 43° Northeast 177 204 7,000  Level Indianapolis Center
08:57PM 39.9669 -83.6789 45° Northeast 176 203 7,000  Level Indianapolis Center
08:58PM 40.0039 -83.6317 44° Northeast 175 201 7,000  Level Indianapolis Center
08:59PM 40.0408 -83.5872 43° Northeast 176 203 7,000  Level Indianapolis Center
09:00PM 40.0733 -83.5422 47° Northeast 176 203 7,000  Level Indianapolis Center
09:01PM 40.1058 -83.5000 45° Northeast 175 201 7,000  Level Indianapolis Center
09:02PM 40.1422 -83.4581 41° Northeast 175 201 7,000  Level Indianapolis Center
09:03PM 40.1769 -83.4131 45° Northeast 175 201 7,000  Level Indianapolis Center
09:03PM 40.1864 -83.4000 47° Northeast 175 201 7,000  Level Indianapolis Center
09:04PM 40.2114 -83.3683 44° Northeast 176 203 7,000  Level Indianapolis Center
09:04PM 40.2231 -83.3556 40° Northeast 177 204 7,000  Level Indianapolis Center
09:05PM 40.2461 -83.3233 47° Northeast 175 201 7,000  Level Indianapolis Center
09:05PM 40.2569 -83.3108 41° Northeast 173 199 7,000  Level Indianapolis Center
09:06PM 40.2850 -83.2758 44° Northeast 176 203 7,000  Level Indianapolis Center
09:06PM 40.2931 -83.2647 46° Northeast 177 204 7,000  Level Indianapolis Center
09:07PM 40.3283 -83.2206 44° Northeast 174 200 7,000  Level Indianapolis Center
09:08PM 40.3642 -83.1756 44° Northeast 175 201 7,000  Level Indianapolis Center
09:09PM 40.3992 -83.1303 45° Northeast 175 201 7,000  Level Indianapolis Center
09:10PM 40.4342 -83.0847 45° Northeast 174 200 7,000 -60 Level Indianapolis Center
09:11PM 40.4706 -83.0406 43° Northeast 175 201 6,900  Descending Indianapolis Center
09:12PM 40.5069 -82.9969 42° Northeast 175 201 7,000  Climbing Indianapolis Center
09:13PM 40.5447 -82.9506 43° Northeast 174 200 6,900  Descending Indianapolis Center
09:15PM 40.5783 -82.9019 48° Northeast 177 204 7,000  Climbing Indianapolis Center
09:16PM 40.6133 -82.8569 44° Northeast 175 201 7,000  Level Indianapolis Center
09:17PM 40.6472 -82.8097 47° Northeast 176 203 7,000  Level Indianapolis Center
09:18PM 40.6819 -82.7625 46° Northeast 177 204 7,000 -60 Level Indianapolis Center
09:19PM 40.7164 -82.7175 45° Northeast 174 200 6,900 -300 Descending Indianapolis Center
09:20PM 40.7519 -82.6686 46° Northeast 181 208 6,500 -420 Descending Indianapolis Center
09:21PM 40.8189 -82.5861 43° Northeast 189 217 5,800 -420 Descending Cleveland Center